L Ar Voaleden — FIMJ — position and weather

sailwx.info

Track history (hours):
 
Tides and Currents Weather Stations Pressure Air Temp Water Temp Dewpoint Dewpoint Depression Visibility Wind Speed Wind Dir Waves Ship Positions

L Ar Voaleden

Last reported at 2018-Jun-20 19:28 UTC. Time now 2018-Jun-20 21:11 UTC.
Position N 51°52' W 011°40'.

Length 23 m; draft 3.6 m.

Type: Fishing. MMSI: 226178000.

Date/timePositionNaut miles runAvg speedWind from/ knotsBaromVisibWave heightAir tempDewpointWater temp
2018-Jun-20 19:28N 51°52' W 011°40'2 1.8
2018-Jun-20 18:20N 51°54' W 011°40'20 1.6
2018-Jun-20 05:53N 51°35' W 011°29'5 8.3
2018-Jun-20 05:15N 51°30' W 011°27'40 8.3
2018-Jun-20 00:29N 50°52' W 011°07'  
2018-Jun-14 01:33N 48°29' W 006°18'42 9.2
2018-Jun-13 20:58N 48°08' W 005°23'4 8.6
2018-Jun-13 20:30N 48°06' W 005°18'4 8.6
2018-Jun-13 20:00N 48°04' W 005°12'5 9.0
2018-Jun-13 19:27N 48°01' W 005°06'4 8.8
2018-Jun-13 19:00N 47°59' W 005°01'4 7.8
2018-Jun-13 18:31N 47°58' W 004°56'4 8.1
2018-Jun-13 18:00N 47°56' W 004°50'4 8.2
2018-Jun-13 17:30N 47°54' W 004°44'8 9.0
2018-Jun-13 16:38N 47°52' W 004°34'5 8.9
2018-Jun-13 16:02N 47°49' W 004°26'0 8.9
2018-Jun-13 16:00N 47°49' W 004°26'  
2018-Jun-11 04:33N 47°49' W 004°23'16 6.4
2018-Jun-11 02:08N 47°55' W 004°44'1 6.5
2018-Jun-11 01:59N 47°55' W 004°46'3 6.7
2018-Jun-11 01:29N 47°56' W 004°50'3 6.7
2018-Jun-11 01:00N 47°58' W 004°55'4 7.1
2018-Jun-11 00:28N 47°59' W 004°60'4 7.5
2018-Jun-10 23:58N 48°01' W 005°05'9 8.3
2018-Jun-10 22:50N 48°04' W 005°18'19 8.6
2018-Jun-10 20:38N 48°11' W 005°44'  
Track history (hours):
 
Tides and Currents Weather Stations Pressure Air Temp Water Temp Dewpoint Dewpoint Depression Visibility Wind Speed Wind Dir Waves Ship Positions

L Ar Voaleden

Last reported at 2018-Jun-20 19:28 UTC. Time now 2018-Jun-20 21:11 UTC.
Position N 51°52' W 011°40'.

Length 23 m; draft 3.6 m.

Type: Fishing. MMSI: 226178000.

Date/timePositionNaut miles runAvg speedWind from/ knotsBaromVisibWave heightAir tempDewpointWater temp
2018-Jun-20 19:28N 51°52' W 011°40'2 1.8
2018-Jun-20 18:20N 51°54' W 011°40'20 1.6
2018-Jun-20 05:53N 51°35' W 011°29'5 8.3
2018-Jun-20 05:15N 51°30' W 011°27'40 8.3
2018-Jun-20 00:29N 50°52' W 011°07'  
2018-Jun-14 01:33N 48°29' W 006°18'42 9.2
2018-Jun-13 20:58N 48°08' W 005°23'4 8.6
2018-Jun-13 20:30N 48°06' W 005°18'4 8.6
2018-Jun-13 20:00N 48°04' W 005°12'5 9.0
2018-Jun-13 19:27N 48°01' W 005°06'4 8.8
2018-Jun-13 19:00N 47°59' W 005°01'4 7.8
2018-Jun-13 18:31N 47°58' W 004°56'4 8.1
2018-Jun-13 18:00N 47°56' W 004°50'4 8.2
2018-Jun-13 17:30N 47°54' W 004°44'8 9.0
2018-Jun-13 16:38N 47°52' W 004°34'5 8.9
2018-Jun-13 16:02N 47°49' W 004°26'0 8.9
2018-Jun-13 16:00N 47°49' W 004°26'  
2018-Jun-11 04:33N 47°49' W 004°23'16 6.4
2018-Jun-11 02:08N 47°55' W 004°44'1 6.5
2018-Jun-11 01:59N 47°55' W 004°46'3 6.7
2018-Jun-11 01:29N 47°56' W 004°50'3 6.7
2018-Jun-11 01:00N 47°58' W 004°55'4 7.1
2018-Jun-11 00:28N 47°59' W 004°60'4 7.5
2018-Jun-10 23:58N 48°01' W 005°05'9 8.3
2018-Jun-10 22:50N 48°04' W 005°18'19 8.6
2018-Jun-10 20:38N 48°11' W 005°44'  

Dump ship's entire track history